sensor_id;sensor_type;location;lat;lon;timestamp;pressure;altitude;pressure_sealevel;temperature;humidity
69247;BME280;56358;56.328;43.992;2023-04-24T00:01:42;100688.66;;;13.06;33.92
69247;BME280;56358;56.328;43.992;2023-04-24T00:03:43;100712.59;;;13.21;33.89
69247;BME280;56358;56.328;43.992;2023-04-24T00:05:44;100706.59;;;13.17;33.70
69247;BME280;56358;56.328;43.992;2023-04-24T00:07:45;100709.16;;;13.19;33.91
69247;BME280;56358;56.328;43.992;2023-04-24T00:09:47;100687.72;;;12.96;34.07
69247;BME280;56358;56.328;43.992;2023-04-24T00:11:48;100706.88;;;13.14;34.28
69247;BME280;56358;56.328;43.992;2023-04-24T00:13:48;100707.09;;;13.11;33.98
69247;BME280;56358;56.328;43.992;2023-04-24T00:15:49;100716.97;;;13.01;34.27
69247;BME280;56358;56.328;43.992;2023-04-24T00:17:50;100714.84;;;13.04;34.39
69247;BME280;56358;56.328;43.992;2023-04-24T00:19:52;100714.03;;;12.93;34.63
69247;BME280;56358;56.328;43.992;2023-04-24T00:21:58;100683.91;;;12.78;34.75
69247;BME280;56358;56.328;43.992;2023-04-24T00:23:59;100692.72;;;12.80;34.77
69247;BME280;56358;56.328;43.992;2023-04-24T00:26:00;100710.91;;;12.87;34.79
69247;BME280;56358;56.328;43.992;2023-04-24T00:28:00;100711.75;;;12.88;35.12
69247;BME280;56358;56.328;43.992;2023-04-24T00:30:01;100711.16;;;12.84;34.81
69247;BME280;56358;56.328;43.992;2023-04-24T00:32:04;100707.41;;;12.76;34.86
69247;BME280;56358;56.328;43.992;2023-04-24T00:34:05;100719.34;;;12.83;34.83
69247;BME280;56358;56.328;43.992;2023-04-24T00:36:06;100718.38;;;12.84;34.81
69247;BME280;56358;56.328;43.992;2023-04-24T00:38:07;100722.31;;;12.80;34.93
69247;BME280;56358;56.328;43.992;2023-04-24T00:40:08;100723.63;;;12.85;34.98
69247;BME280;56358;56.328;43.992;2023-04-24T00:42:09;100720.66;;;12.88;34.91
69247;BME280;56358;56.328;43.992;2023-04-24T00:44:10;100725.06;;;12.89;34.90
69247;BME280;56358;56.328;43.992;2023-04-24T00:46:11;100719.09;;;12.86;34.89
69247;BME280;56358;56.328;43.992;2023-04-24T00:48:12;100590.56;;;12.03;35.06
69247;BME280;56358;56.328;43.992;2023-04-24T00:50:15;100666.53;;;12.49;35.07
69247;BME280;56358;56.328;43.992;2023-04-24T00:52:16;100718.50;;;12.82;35.19
69247;BME280;56358;56.328;43.992;2023-04-24T00:54:18;100712.44;;;12.69;35.42
69247;BME280;56358;56.328;43.992;2023-04-24T00:56:19;100713.91;;;12.73;35.23
69247;BME280;56358;56.328;43.992;2023-04-24T00:58:20;100721.97;;;12.73;35.32
69247;BME280;56358;56.328;43.992;2023-04-24T01:00:21;100719.53;;;12.70;35.49
69247;BME280;56358;56.328;43.992;2023-04-24T01:02:22;100714.03;;;12.71;35.37
69247;BME280;56358;56.328;43.992;2023-04-24T01:04:24;100712.06;;;12.73;35.49
69247;BME280;56358;56.328;43.992;2023-04-24T01:06:28;100645.84;;;12.29;35.30
69247;BME280;56358;56.328;43.992;2023-04-24T01:08:29;100719.75;;;12.78;35.16
69247;BME280;56358;56.328;43.992;2023-04-24T01:10:31;100712.78;;;12.76;35.25
69247;BME280;56358;56.328;43.992;2023-04-24T01:12:33;100712.91;;;12.74;35.49
69247;BME280;56358;56.328;43.992;2023-04-24T01:14:33;100708.31;;;12.65;35.64
69247;BME280;56358;56.328;43.992;2023-04-24T01:16:35;100718.53;;;12.71;35.31
69247;BME280;56358;56.328;43.992;2023-04-24T01:18:36;100718.53;;;12.71;35.52
69247;BME280;56358;56.328;43.992;2023-04-24T01:20:39;100697.56;;;12.53;35.27
69247;BME280;56358;56.328;43.992;2023-04-24T01:22:40;100715.28;;;12.67;35.67
69247;BME280;56358;56.328;43.992;2023-04-24T01:24:42;100628.53;;;12.10;35.90
69247;BME280;56358;56.328;43.992;2023-04-24T01:26:43;100711.50;;;12.58;35.81
69247;BME280;56358;56.328;43.992;2023-04-24T01:28:45;100718.47;;;12.61;35.67
69247;BME280;56358;56.328;43.992;2023-04-24T01:30:46;100708.09;;;12.56;35.69
69247;BME280;56358;56.328;43.992;2023-04-24T01:32:48;100721.00;;;12.63;35.77
69247;BME280;56358;56.328;43.992;2023-04-24T01:34:49;100568.13;;;11.70;35.67
69247;BME280;56358;56.328;43.992;2023-04-24T01:36:50;100709.53;;;12.61;35.81
69247;BME280;56358;56.328;43.992;2023-04-24T01:38:51;100687.00;;;12.40;35.63
69247;BME280;56358;56.328;43.992;2023-04-24T01:40:52;100699.69;;;12.50;35.69
69247;BME280;56358;56.328;43.992;2023-04-24T01:42:54;100714.78;;;12.62;35.98
69247;BME280;56358;56.328;43.992;2023-04-24T01:44:54;100714.19;;;12.58;36.02
69247;BME280;56358;56.328;43.992;2023-04-24T01:46:55;100712.47;;;12.57;35.89
69247;BME280;56358;56.328;43.992;2023-04-24T01:48:56;100722.38;;;12.57;35.82
69247;BME280;56358;56.328;43.992;2023-04-24T01:50:59;100715.91;;;12.60;35.82
69247;BME280;56358;56.328;43.992;2023-04-24T01:53:00;100725.69;;;12.61;36.00
69247;BME280;56358;56.328;43.992;2023-04-24T01:55:01;100717.25;;;12.54;36.04
69247;BME280;56358;56.328;43.992;2023-04-24T01:57:04;100698.09;;;12.47;36.07
69247;BME280;56358;56.328;43.992;2023-04-24T01:59:06;100719.69;;;12.57;35.92
69247;BME280;56358;56.328;43.992;2023-04-24T02:01:07;100731.28;;;12.57;36.08
69247;BME280;56358;56.328;43.992;2023-04-24T02:03:08;100716.88;;;12.58;35.82
69247;BME280;56358;56.328;43.992;2023-04-24T02:05:09;100675.88;;;12.34;36.22
69247;BME280;56358;56.328;43.992;2023-04-24T02:07:10;100716.16;;;12.56;36.29
69247;BME280;56358;56.328;43.992;2023-04-24T02:09:11;100713.13;;;12.50;35.89
69247;BME280;56358;56.328;43.992;2023-04-24T02:11:11;100722.25;;;12.58;35.96
69247;BME280;56358;56.328;43.992;2023-04-24T02:13:12;100720.41;;;12.59;35.96
69247;BME280;56358;56.328;43.992;2023-04-24T02:15:13;100724.94;;;12.58;35.89
69247;BME280;56358;56.328;43.992;2023-04-24T02:17:14;100731.91;;;12.61;36.00
69247;BME280;56358;56.328;43.992;2023-04-24T02:19:15;100672.09;;;12.25;35.96
69247;BME280;56358;56.328;43.992;2023-04-24T02:21:16;100721.41;;;12.58;36.16
69247;BME280;56358;56.328;43.992;2023-04-24T02:23:17;100717.75;;;12.48;36.05
69247;BME280;56358;56.328;43.992;2023-04-24T02:25:18;100732.53;;;12.53;36.26
69247;BME280;56358;56.328;43.992;2023-04-24T02:27:18;100729.84;;;12.53;36.19
69247;BME280;56358;56.328;43.992;2023-04-24T02:29:19;100731.44;;;12.56;36.01
69247;BME280;56358;56.328;43.992;2023-04-24T02:31:20;100700.09;;;12.34;36.20
69247;BME280;56358;56.328;43.992;2023-04-24T02:33:20;100735.56;;;12.60;36.13
69247;BME280;56358;56.328;43.992;2023-04-24T02:35:22;100725.44;;;12.52;36.03
69247;BME280;56358;56.328;43.992;2023-04-24T02:37:22;100750.34;;;12.66;35.96
69247;BME280;56358;56.328;43.992;2023-04-24T02:39:23;100742.88;;;12.69;35.71
69247;BME280;56358;56.328;43.992;2023-04-24T02:41:24;100759.50;;;12.74;35.50
69247;BME280;56358;56.328;43.992;2023-04-24T02:43:25;100748.25;;;12.81;35.82
69247;BME280;56358;56.328;43.992;2023-04-24T02:45:26;100704.41;;;12.57;35.60
69247;BME280;56358;56.328;43.992;2023-04-24T02:47:26;100731.63;;;12.76;35.80
69247;BME280;56358;56.328;43.992;2023-04-24T02:49:27;100757.91;;;12.83;35.64
69247;BME280;56358;56.328;43.992;2023-04-24T02:51:28;100748.69;;;12.86;35.58
69247;BME280;56358;56.328;43.992;2023-04-24T02:53:29;100750.03;;;12.91;35.36
69247;BME280;56358;56.328;43.992;2023-04-24T02:55:30;100756.25;;;12.92;35.51
69247;BME280;56358;56.328;43.992;2023-04-24T02:57:31;100756.47;;;13.00;35.48
69247;BME280;56358;56.328;43.992;2023-04-24T02:59:32;100754.50;;;13.02;35.04
69247;BME280;56358;56.328;43.992;2023-04-24T03:01:33;100751.56;;;13.05;34.95
69247;BME280;56358;56.328;43.992;2023-04-24T03:03:34;100757.00;;;13.15;35.09
69247;BME280;56358;56.328;43.992;2023-04-24T03:05:35;100764.72;;;13.20;34.96
69247;BME280;56358;56.328;43.992;2023-04-24T03:07:35;100777.75;;;13.24;35.14
69247;BME280;56358;56.328;43.992;2023-04-24T03:09:37;100763.72;;;13.21;34.88
69247;BME280;56358;56.328;43.992;2023-04-24T03:11:37;100754.91;;;13.19;34.58
69247;BME280;56358;56.328;43.992;2023-04-24T03:13:38;100700.84;;;12.89;34.67
69247;BME280;56358;56.328;43.992;2023-04-24T03:15:39;100707.69;;;12.94;34.81
69247;BME280;56358;56.328;43.992;2023-04-24T03:17:39;100760.63;;;13.25;34.79
69247;BME280;56358;56.328;43.992;2023-04-24T03:19:40;100782.59;;;13.42;34.53
69247;BME280;56358;56.328;43.992;2023-04-24T03:21:41;100783.81;;;13.49;34.29
69247;BME280;56358;56.328;43.992;2023-04-24T03:23:42;100781.94;;;13.50;34.65
69247;BME280;56358;56.328;43.992;2023-04-24T03:25:42;100787.94;;;13.53;34.80
69247;BME280;56358;56.328;43.992;2023-04-24T03:27:43;100697.72;;;13.05;34.44
69247;BME280;56358;56.328;43.992;2023-04-24T03:29:44;100774.47;;;13.53;34.46
69247;BME280;56358;56.328;43.992;2023-04-24T03:31:44;100791.94;;;13.59;34.02
69247;BME280;56358;56.328;43.992;2023-04-24T03:33:45;100778.34;;;13.61;34.29
69247;BME280;56358;56.328;43.992;2023-04-24T03:35:46;100788.13;;;13.62;34.14
69247;BME280;56358;56.328;43.992;2023-04-24T03:37:47;100766.41;;;13.53;34.04
69247;BME280;56358;56.328;43.992;2023-04-24T03:39:48;100792.72;;;13.71;34.29
69247;BME280;56358;56.328;43.992;2023-04-24T03:41:48;100729.63;;;13.31;34.31
69247;BME280;56358;56.328;43.992;2023-04-24T03:43:49;100802.53;;;13.72;34.14
69247;BME280;56358;56.328;43.992;2023-04-24T03:45:50;100805.94;;;13.74;34.12
69247;BME280;56358;56.328;43.992;2023-04-24T03:47:51;100791.34;;;13.77;34.19
69247;BME280;56358;56.328;43.992;2023-04-24T03:49:51;100797.00;;;13.73;34.18
69247;BME280;56358;56.328;43.992;2023-04-24T03:51:52;100770.13;;;13.62;34.20
69247;BME280;56358;56.328;43.992;2023-04-24T03:53:53;100779.22;;;13.61;34.00
69247;BME280;56358;56.328;43.992;2023-04-24T03:55:54;100807.97;;;13.82;34.00
69247;BME280;56358;56.328;43.992;2023-04-24T03:57:55;100800.03;;;13.80;34.02
69247;BME280;56358;56.328;43.992;2023-04-24T03:59:56;100795.78;;;13.87;34.00
69247;BME280;56358;56.328;43.992;2023-04-24T04:01:56;100807.03;;;13.93;33.93
69247;BME280;56358;56.328;43.992;2023-04-24T04:03:57;100796.13;;;13.94;33.83
69247;BME280;56358;56.328;43.992;2023-04-24T04:05:58;100778.66;;;13.88;33.56
69247;BME280;56358;56.328;43.992;2023-04-24T04:07:59;100814.63;;;14.08;33.66
69247;BME280;56358;56.328;43.992;2023-04-24T04:09:59;100813.38;;;14.13;33.79
69247;BME280;56358;56.328;43.992;2023-04-24T04:12:00;100813.25;;;14.14;33.79
69247;BME280;56358;56.328;43.992;2023-04-24T04:14:01;100832.56;;;14.19;33.70
69247;BME280;56358;56.328;43.992;2023-04-24T04:16:02;100810.59;;;14.24;33.57
69247;BME280;56358;56.328;43.992;2023-04-24T04:18:03;100813.63;;;14.31;33.47
69247;BME280;56358;56.328;43.992;2023-04-24T04:20:04;100794.28;;;14.25;33.42
69247;BME280;56358;56.328;43.992;2023-04-24T04:22:10;100808.94;;;14.42;33.16
69247;BME280;56358;56.328;43.992;2023-04-24T04:24:11;100692.63;;;13.75;33.32
69247;BME280;56358;56.328;43.992;2023-04-24T04:26:12;100763.63;;;14.27;33.27
69247;BME280;56358;56.328;43.992;2023-04-24T04:28:13;100764.06;;;14.32;32.72
69247;BME280;56358;56.328;43.992;2023-04-24T04:30:14;100821.56;;;14.73;32.87
69247;BME280;56358;56.328;43.992;2023-04-24T04:32:15;100830.69;;;14.82;32.97
69247;BME280;56358;56.328;43.992;2023-04-24T04:34:16;100834.38;;;14.90;32.61
69247;BME280;56358;56.328;43.992;2023-04-24T04:36:17;100831.72;;;15.00;32.47
69247;BME280;56358;56.328;43.992;2023-04-24T04:38:18;100840.81;;;15.09;32.44
69247;BME280;56358;56.328;43.992;2023-04-24T04:40:19;100842.25;;;15.13;32.38
69247;BME280;56358;56.328;43.992;2023-04-24T04:42:20;100814.25;;;15.14;31.96
69247;BME280;56358;56.328;43.992;2023-04-24T04:44:21;100834.72;;;15.36;32.00
69247;BME280;56358;56.328;43.992;2023-04-24T04:46:22;100835.41;;;15.48;32.09
69247;BME280;56358;56.328;43.992;2023-04-24T04:48:27;100827.75;;;15.53;31.84
69247;BME280;56358;56.328;43.992;2023-04-24T04:50:27;100829.72;;;15.61;32.00
69247;BME280;56358;56.328;43.992;2023-04-24T04:52:28;100841.94;;;15.75;31.62
69247;BME280;56358;56.328;43.992;2023-04-24T04:54:29;100839.13;;;15.86;31.38
69247;BME280;56358;56.328;43.992;2023-04-24T04:56:30;100844.19;;;15.99;31.47
69247;BME280;56358;56.328;43.992;2023-04-24T04:58:30;100828.13;;;15.98;31.48
69247;BME280;56358;56.328;43.992;2023-04-24T05:00:31;100840.88;;;16.25;31.50
69247;BME280;56358;56.328;43.992;2023-04-24T05:02:36;100813.97;;;16.14;30.95
69247;BME280;56358;56.328;43.992;2023-04-24T05:04:36;100846.66;;;16.40;30.81
69247;BME280;56358;56.328;43.992;2023-04-24T05:06:37;100834.94;;;16.39;31.01
69247;BME280;56358;56.328;43.992;2023-04-24T05:08:38;100833.94;;;16.50;30.54
69247;BME280;56358;56.328;43.992;2023-04-24T05:10:38;100845.69;;;16.59;30.57
69247;BME280;56358;56.328;43.992;2023-04-24T05:12:39;100839.53;;;16.67;30.29
69247;BME280;56358;56.328;43.992;2023-04-24T05:14:40;100844.47;;;16.71;30.53
69247;BME280;56358;56.328;43.992;2023-04-24T05:16:40;100818.63;;;16.59;30.50
69247;BME280;56358;56.328;43.992;2023-04-24T05:18:41;100841.88;;;16.80;30.40
69247;BME280;56358;56.328;43.992;2023-04-24T05:20:42;100847.84;;;16.83;30.52
69247;BME280;56358;56.328;43.992;2023-04-24T05:22:44;100848.13;;;16.90;30.54
69247;BME280;56358;56.328;43.992;2023-04-24T05:24:44;100852.78;;;16.98;30.40
69247;BME280;56358;56.328;43.992;2023-04-24T05:26:45;100838.78;;;17.02;30.39
69247;BME280;56358;56.328;43.992;2023-04-24T05:28:47;100809.78;;;16.85;30.05
69247;BME280;56358;56.328;43.992;2023-04-24T05:30:48;100837.16;;;17.09;30.32
69247;BME280;56358;56.328;43.992;2023-04-24T05:32:48;100850.78;;;17.18;30.45
69247;BME280;56358;56.328;43.992;2023-04-24T05:34:49;100861.69;;;17.26;30.17
69247;BME280;56358;56.328;43.992;2023-04-24T05:36:50;100856.53;;;17.33;30.10
69247;BME280;56358;56.328;43.992;2023-04-24T05:38:51;100844.38;;;17.37;30.36
69247;BME280;56358;56.328;43.992;2023-04-24T05:40:52;100849.34;;;17.41;29.65
69247;BME280;56358;56.328;43.992;2023-04-24T05:42:52;100831.81;;;17.36;29.61
69247;BME280;56358;56.328;43.992;2023-04-24T05:44:53;100853.81;;;17.51;29.64
69247;BME280;56358;56.328;43.992;2023-04-24T05:46:55;100846.28;;;17.63;29.42
69247;BME280;56358;56.328;43.992;2023-04-24T05:48:56;100848.84;;;17.64;29.06
69247;BME280;56358;56.328;43.992;2023-04-24T05:50:56;100854.00;;;17.75;29.37
69247;BME280;56358;56.328;43.992;2023-04-24T05:52:57;100856.22;;;17.80;29.24
69247;BME280;56358;56.328;43.992;2023-04-24T05:55:04;100846.25;;;17.81;28.75
69247;BME280;56358;56.328;43.992;2023-04-24T05:57:06;100848.72;;;17.92;28.75
69247;BME280;56358;56.328;43.992;2023-04-24T05:59:08;100852.38;;;18.01;28.72
69247;BME280;56358;56.328;43.992;2023-04-24T06:01:09;100848.69;;;18.10;28.35
69247;BME280;56358;56.328;43.992;2023-04-24T06:03:10;100839.91;;;18.16;28.38
69247;BME280;56358;56.328;43.992;2023-04-24T06:05:10;100858.47;;;18.29;28.51
69247;BME280;56358;56.328;43.992;2023-04-24T06:07:11;100856.50;;;18.39;28.08
69247;BME280;56358;56.328;43.992;2023-04-24T06:09:12;100863.31;;;18.43;28.36
69247;BME280;56358;56.328;43.992;2023-04-24T06:11:13;100793.44;;;18.11;27.93
69247;BME280;56358;56.328;43.992;2023-04-24T06:13:14;100859.97;;;18.58;28.22
69247;BME280;56358;56.328;43.992;2023-04-24T06:15:14;100857.59;;;18.63;26.96
69247;BME280;56358;56.328;43.992;2023-04-24T06:17:15;100855.41;;;18.67;27.33
69247;BME280;56358;56.328;43.992;2023-04-24T06:19:16;100860.50;;;18.70;27.19
69247;BME280;56358;56.328;43.992;2023-04-24T06:21:17;100869.19;;;18.73;27.58
69247;BME280;56358;56.328;43.992;2023-04-24T06:23:17;100857.69;;;18.80;26.91
69247;BME280;56358;56.328;43.992;2023-04-24T06:25:18;100788.66;;;18.48;27.17
69247;BME280;56358;56.328;43.992;2023-04-24T06:27:20;100860.84;;;19.01;26.85
69247;BME280;56358;56.328;43.992;2023-04-24T06:29:20;100859.84;;;19.11;26.66
69247;BME280;56358;56.328;43.992;2023-04-24T06:31:21;100865.81;;;19.22;26.97
69247;BME280;56358;56.328;43.992;2023-04-24T06:33:22;100852.91;;;19.24;26.74
69247;BME280;56358;56.328;43.992;2023-04-24T06:35:23;100817.91;;;19.05;26.43
69247;BME280;56358;56.328;43.992;2023-04-24T06:37:24;100865.47;;;19.42;26.69
69247;BME280;56358;56.328;43.992;2023-04-24T06:39:25;100862.78;;;19.50;26.44
69247;BME280;56358;56.328;43.992;2023-04-24T06:41:25;100858.19;;;19.59;25.97
69247;BME280;56358;56.328;43.992;2023-04-24T06:43:26;100846.81;;;19.55;25.49
69247;BME280;56358;56.328;43.992;2023-04-24T06:45:27;100811.47;;;19.39;25.90
69247;BME280;56358;56.328;43.992;2023-04-24T06:47:27;100810.44;;;19.40;25.26
69247;BME280;56358;56.328;43.992;2023-04-24T06:49:28;100855.81;;;19.72;25.19
69247;BME280;56358;56.328;43.992;2023-04-24T06:51:29;100864.88;;;19.81;25.36
69247;BME280;56358;56.328;43.992;2023-04-24T06:53:29;100782.91;;;19.43;25.26
69247;BME280;56358;56.328;43.992;2023-04-24T06:55:30;100854.16;;;19.88;25.47
69247;BME280;56358;56.328;43.992;2023-04-24T06:57:31;100864.66;;;20.07;24.45
69247;BME280;56358;56.328;43.992;2023-04-24T06:59:32;100835.75;;;19.98;24.48
69247;BME280;56358;56.328;43.992;2023-04-24T07:01:32;100872.13;;;20.22;24.35
69247;BME280;56358;56.328;43.992;2023-04-24T07:03:33;100856.63;;;20.22;24.04
69247;BME280;56358;56.328;43.992;2023-04-24T07:05:34;100861.56;;;20.27;24.25
69247;BME280;56358;56.328;43.992;2023-04-24T07:07:35;100826.56;;;20.07;24.03
69247;BME280;56358;56.328;43.992;2023-04-24T07:09:38;100860.69;;;20.35;24.00
69247;BME280;56358;56.328;43.992;2023-04-24T07:11:41;100860.84;;;20.41;23.95
69247;BME280;56358;56.328;43.992;2023-04-24T07:13:42;100871.53;;;20.51;23.54
69247;BME280;56358;56.328;43.992;2023-04-24T07:15:44;100863.88;;;20.55;23.61
69247;BME280;56358;56.328;43.992;2023-04-24T07:17:44;100791.66;;;20.19;24.17
69247;BME280;56358;56.328;43.992;2023-04-24T07:19:45;100871.13;;;20.71;23.24
69247;BME280;56358;56.328;43.992;2023-04-24T07:21:46;100818.28;;;20.40;23.12
69247;BME280;56358;56.328;43.992;2023-04-24T07:23:46;100861.28;;;20.70;23.25
69247;BME280;56358;56.328;43.992;2023-04-24T07:25:47;100863.09;;;20.77;22.85
69247;BME280;56358;56.328;43.992;2023-04-24T07:27:48;100848.31;;;20.72;23.16
69247;BME280;56358;56.328;43.992;2023-04-24T07:29:49;100864.09;;;20.85;23.01
69247;BME280;56358;56.328;43.992;2023-04-24T07:31:50;100866.63;;;20.86;22.53
69247;BME280;56358;56.328;43.992;2023-04-24T07:33:50;100795.13;;;20.45;23.23
69247;BME280;56358;56.328;43.992;2023-04-24T07:35:52;100868.66;;;20.92;23.04
69247;BME280;56358;56.328;43.992;2023-04-24T07:37:53;100864.56;;;20.97;23.34
69247;BME280;56358;56.328;43.992;2023-04-24T07:39:54;100835.31;;;20.82;23.04
69247;BME280;56358;56.328;43.992;2023-04-24T07:41:55;100868.94;;;21.06;22.70
69247;BME280;56358;56.328;43.992;2023-04-24T07:43:56;100863.78;;;21.11;22.25
69247;BME280;56358;56.328;43.992;2023-04-24T07:45:56;100867.66;;;21.17;22.23
69247;BME280;56358;56.328;43.992;2023-04-24T07:47:57;100865.78;;;21.17;22.21
69247;BME280;56358;56.328;43.992;2023-04-24T07:49:58;100875.91;;;21.08;21.76
69247;BME280;56358;56.328;43.992;2023-04-24T07:51:59;100867.88;;;21.07;21.97
69247;BME280;56358;56.328;43.992;2023-04-24T07:54:02;100861.78;;;21.05;21.73
69247;BME280;56358;56.328;43.992;2023-04-24T07:56:03;100829.13;;;20.97;21.74
69247;BME280;56358;56.328;43.992;2023-04-24T07:58:03;100846.56;;;21.10;21.45
69247;BME280;56358;56.328;43.992;2023-04-24T08:00:05;100829.47;;;20.93;21.70
69247;BME280;56358;56.328;43.992;2023-04-24T08:02:07;100859.69;;;21.15;21.57
69247;BME280;56358;56.328;43.992;2023-04-24T08:04:07;100862.56;;;21.14;21.84
69247;BME280;56358;56.328;43.992;2023-04-24T08:06:08;100788.44;;;20.87;21.93
69247;BME280;56358;56.328;43.992;2023-04-24T08:08:09;100840.63;;;21.07;21.55
69247;BME280;56358;56.328;43.992;2023-04-24T08:10:10;100850.88;;;21.28;21.74
69247;BME280;56358;56.328;43.992;2023-04-24T08:12:11;100848.97;;;21.37;21.87
69247;BME280;56358;56.328;43.992;2023-04-24T08:14:12;100741.22;;;20.71;22.24
69247;BME280;56358;56.328;43.992;2023-04-24T08:16:13;100863.25;;;21.39;21.41
69247;BME280;56358;56.328;43.992;2023-04-24T08:18:14;100792.63;;;20.98;21.64
69247;BME280;56358;56.328;43.992;2023-04-24T08:20:16;100844.47;;;21.21;21.43
69247;BME280;56358;56.328;43.992;2023-04-24T08:22:17;100833.56;;;21.21;21.36
69247;BME280;56358;56.328;43.992;2023-04-24T08:24:17;100857.03;;;21.30;21.41
69247;BME280;56358;56.328;43.992;2023-04-24T08:26:18;100777.34;;;20.97;21.56
69247;BME280;56358;56.328;43.992;2023-04-24T08:28:19;100844.34;;;21.37;21.23
69247;BME280;56358;56.328;43.992;2023-04-24T08:30:20;100835.13;;;21.38;21.08
69247;BME280;56358;56.328;43.992;2023-04-24T08:32:21;100841.03;;;21.50;21.49
69247;BME280;56358;56.328;43.992;2023-04-24T08:34:22;100840.50;;;21.55;21.15
69247;BME280;56358;56.328;43.992;2023-04-24T08:36:23;100840.50;;;21.55;21.20
69247;BME280;56358;56.328;43.992;2023-04-24T08:38:23;100821.38;;;21.55;21.05
69247;BME280;56358;56.328;43.992;2023-04-24T08:40:27;100829.44;;;21.71;21.13
69247;BME280;56358;56.328;43.992;2023-04-24T08:42:31;100826.84;;;21.78;20.97
69247;BME280;56358;56.328;43.992;2023-04-24T08:44:35;100837.84;;;21.85;20.95
69247;BME280;56358;56.328;43.992;2023-04-24T08:46:37;100833.34;;;21.92;20.42
69247;BME280;56358;56.328;43.992;2023-04-24T08:48:38;100833.06;;;22.02;20.25
69247;BME280;56358;56.328;43.992;2023-04-24T08:50:40;100837.69;;;22.01;20.51
69247;BME280;56358;56.328;43.992;2023-04-24T08:52:43;100827.50;;;21.95;20.53
69247;BME280;56358;56.328;43.992;2023-04-24T08:54:45;100839.94;;;21.98;20.32
69247;BME280;56358;56.328;43.992;2023-04-24T08:56:47;100840.41;;;22.01;20.55
69247;BME280;56358;56.328;43.992;2023-04-24T08:58:50;100837.00;;;21.99;20.70
69247;BME280;56358;56.328;43.992;2023-04-24T09:00:51;100835.16;;;22.15;20.71
69247;BME280;56358;56.328;43.992;2023-04-24T09:02:53;100764.91;;;21.93;20.27
69247;BME280;56358;56.328;43.992;2023-04-24T09:04:55;100791.16;;;22.24;20.00
69247;BME280;56358;56.328;43.992;2023-04-24T09:06:58;100806.34;;;22.42;20.15
69247;BME280;56358;56.328;43.992;2023-04-24T09:09:02;100789.97;;;22.42;19.78
69247;BME280;56358;56.328;43.992;2023-04-24T09:11:03;100796.72;;;22.61;19.29
69247;BME280;56358;56.328;43.992;2023-04-24T09:13:05;100803.56;;;22.87;19.40
69247;BME280;56358;56.328;43.992;2023-04-24T09:15:07;100742.47;;;22.80;19.12
69247;BME280;56358;56.328;43.992;2023-04-24T09:17:08;100682.56;;;22.78;19.07
69247;BME280;56358;56.328;43.992;2023-04-24T09:19:09;100800.72;;;23.88;18.39
69247;BME280;56358;56.328;43.992;2023-04-24T09:21:10;100806.63;;;24.20;18.17
69247;BME280;56358;56.328;43.992;2023-04-24T09:23:10;100793.91;;;24.41;17.96
69247;BME280;56358;56.328;43.992;2023-04-24T09:25:16;100804.13;;;24.67;17.85
69247;BME280;56358;56.328;43.992;2023-04-24T09:27:17;100794.53;;;25.05;17.62
69247;BME280;56358;56.328;43.992;2023-04-24T09:29:19;100801.97;;;25.31;17.16
69247;BME280;56358;56.328;43.992;2023-04-24T09:31:20;100816.19;;;25.62;16.44
69247;BME280;56358;56.328;43.992;2023-04-24T09:33:22;100787.44;;;25.84;16.43
69247;BME280;56358;56.328;43.992;2023-04-24T09:35:23;100802.41;;;26.15;16.14
69247;BME280;56358;56.328;43.992;2023-04-24T09:37:28;100786.63;;;26.56;15.84
69247;BME280;56358;56.328;43.992;2023-04-24T09:39:29;100725.84;;;26.25;15.66
69247;BME280;56358;56.328;43.992;2023-04-24T09:41:32;100784.66;;;26.70;15.54
69247;BME280;56358;56.328;43.992;2023-04-24T09:43:33;100772.94;;;26.88;15.39
69247;BME280;56358;56.328;43.992;2023-04-24T09:45:38;100755.91;;;27.04;14.99
69247;BME280;56358;56.328;43.992;2023-04-24T09:47:40;100773.72;;;27.59;14.66
69247;BME280;56358;56.328;43.992;2023-04-24T09:49:41;100775.53;;;27.72;14.69
69247;BME280;56358;56.328;43.992;2023-04-24T09:51:43;100779.84;;;28.05;14.44
69247;BME280;56358;56.328;43.992;2023-04-24T09:53:47;100785.94;;;28.32;14.54
69247;BME280;56358;56.328;43.992;2023-04-24T09:55:48;100773.59;;;28.35;13.75
69247;BME280;56358;56.328;43.992;2023-04-24T09:57:52;100766.22;;;28.47;14.00
69247;BME280;56358;56.328;43.992;2023-04-24T09:59:53;100773.94;;;28.57;13.79
69247;BME280;56358;56.328;43.992;2023-04-24T10:01:54;100767.59;;;28.75;14.20
69247;BME280;56358;56.328;43.992;2023-04-24T10:03:55;100761.69;;;28.71;13.65
69247;BME280;56358;56.328;43.992;2023-04-24T10:06:03;100747.34;;;28.32;13.94
69247;BME280;56358;56.328;43.992;2023-04-24T10:08:11;100764.22;;;28.54;14.08
69247;BME280;56358;56.328;43.992;2023-04-24T10:10:12;100761.38;;;28.61;13.87
69247;BME280;56358;56.328;43.992;2023-04-24T10:12:14;100775.31;;;28.48;13.58
69247;BME280;56358;56.328;43.992;2023-04-24T10:14:17;100768.09;;;28.16;14.19
69247;BME280;56358;56.328;43.992;2023-04-24T10:16:20;100757.56;;;28.43;13.40
69247;BME280;56358;56.328;43.992;2023-04-24T10:18:21;100758.09;;;28.71;12.92
69247;BME280;56358;56.328;43.992;2023-04-24T10:20:24;100740.31;;;28.97;13.23
69247;BME280;56358;56.328;43.992;2023-04-24T10:22:25;100743.28;;;29.62;13.17
69247;BME280;56358;56.328;43.992;2023-04-24T10:24:28;100745.19;;;30.20;12.25
69247;BME280;56358;56.328;43.992;2023-04-24T10:26:29;100755.72;;;30.47;12.15